Canberra International Airport
YSCB : now visible

Airfield :











YOU CAN JOIN US ON...

 
LOGIN :

Register | Disclaimer

   EN    FR    IT 

 









Legend :    VFR   Marginal VFR   IFR   Intensive IFR   Very Intensive IFR
Visi :
Ceiling :
>= 8 km
>= 3000ft
5 to 8 km
1000 to 3000 ft
1500m to 5 km
500 to 1000 ft
800 to 1500m
200 to 500 ft
< 800m
< 200 ft
Symbols :   Thunderstorms  Fog  Heavy snow  Heavy precipitations  Wind > 20 kt






- Airport Elevation : 1886 ft
- IATA code : CBR


YSCB - Canberra International

CURRENT METAR :
  • 251000Z AUTO 09010KT 9999 // NCD 26/16 Q1013

EXPIRED METARs :
  • 250930Z AUTO 28006KT 9999 // NCD 28/06 Q1012 RF00.0/000.0
  • 250900Z AUTO 28005KT 9999 // NCD 29/06 Q1012
  • 250830Z AUTO 30009KT 9999 // NCD 30/05 Q1011 RF00.0/000.0
  • 250800Z AUTO 32008KT 9999 // NCD 31/05 Q1011
  • 250730Z AUTO 30010KT 9999 // NCD 32/05 Q1011 RF00.0/000.0

TAF TAF YSCB
Valid from the 25 at 06:00 until the 26 at 06:00 UTC


250515Z 2506/2606 32013KT CAVOK
FM250900 04010KT 9000 FU NSC
FM251100 08006KT 6000 FU FEW015
FM251400 13006KT 6000 FU BKN012
BECMG 2521/2523 31013KT 8000 FU NSC
PROB30 2510/2523 4000 FU



MET'MAP, your aeronautical weather chart ! - Copyright ORBIFLY December 2007 - Disclaimer

ORBIFLY MET'MAP TEAM :

Programming & Development : Alexandra Zaïnal
Concept & original design : Baudouin d'Aumeries
Assistance for programming : Marc-Olivier Méhu
Technical & hardware support : Manuel Goepfert

Contact : metmap@orbifly.com




SOURCES & CREDITS :

   NOAA       Earth
Advisory